Time;durP1;ratioP1;P1;durP2;ratioP2;P2;SDS_P1;SDS_P2;PMS_P1;PMS_P2;Temp;Humidity;BMP_temperature;BMP_pressure;BME280_temperature;BME280_humidity;BME280_pressure;Samples;Min_cycle;Max_cycle;Signal;HPM_P1;HPM_P2
2023/01/06 00:00:17;;;;;;;3.38;1.20;;;13.70;99.90;;;;;;5002396;28;20891;-93
2023/01/06 00:02:44;;;;;;;4.07;1.40;;;13.70;99.90;;;;;;4989519;28;20116;-89
2023/01/06 00:05:10;;;;;;;1.80;1.10;;;13.70;99.90;;;;;;4991039;28;20277;-92
2023/01/06 00:07:36;;;;;;;2.28;1.00;;;13.70;99.90;;;;;;5011762;28;20104;-92
2023/01/06 00:10:01;;;;;;;3.60;1.10;;;13.60;99.90;;;;;;5013623;28;20169;-91
2023/01/06 00:12:27;;;;;;;3.47;1.20;;;13.60;99.90;;;;;;5002008;28;20466;-92
2023/01/06 00:14:54;;;;;;;2.90;1.40;;;13.60;99.90;;;;;;4995012;28;20432;-92
2023/01/06 00:17:20;;;;;;;2.35;1.20;;;13.60;99.90;;;;;;4997199;28;20021;-93
2023/01/06 00:19:46;;;;;;;2.10;1.00;;;13.60;99.90;;;;;;4992805;28;20051;-91
2023/01/06 00:22:12;;;;;;;2.90;1.20;;;13.60;99.90;;;;;;4997560;28;20608;-92
2023/01/06 00:24:38;;;;;;;3.35;1.30;;;13.60;99.90;;;;;;5000749;28;20047;-91
2023/01/06 00:27:04;;;;;;;2.00;1.00;;;13.60;99.90;;;;;;4980986;28;20056;-92
2023/01/06 00:29:29;;;;;;;2.08;1.02;;;13.60;99.90;;;;;;4994019;28;20036;-93
2023/01/06 00:31:59;;;;;;;1.80;0.90;;;13.60;99.90;;;;;;5000329;28;20457;-91
2023/01/06 00:34:25;;;;;;;3.25;1.10;;;13.60;99.90;;;;;;4971627;28;20027;-92
2023/01/06 00:36:50;;;;;;;1.30;0.88;;;13.60;99.90;;;;;;4995070;28;20009;-92
2023/01/06 00:39:16;;;;;;;1.33;0.98;;;13.60;99.90;;;;;;5011668;28;20031;-94
2023/01/06 00:44:26;;;;;;;2.63;0.90;;;13.60;99.90;;;;;;5028214;28;20726;-92
2023/01/06 00:46:52;;;;;;;2.17;0.93;;;13.50;99.90;;;;;;4999168;28;20203;-92
2023/01/06 00:49:17;;;;;;;1.40;0.82;;;13.60;99.90;;;;;;4997543;28;20697;-92
2023/01/06 00:51:43;;;;;;;3.70;0.90;;;13.60;99.90;;;;;;4989099;28;20306;-92
2023/01/06 00:54:11;;;;;;;2.22;0.98;;;13.50;99.90;;;;;;5013127;28;20031;-91
2023/01/06 00:56:43;;;;;;;2.83;0.93;;;13.50;99.90;;;;;;5013683;28;20132;-93
2023/01/06 00:59:12;;;;;;;3.47;1.00;;;13.60;99.90;;;;;;4999104;28;20025;-90
2023/01/06 01:01:38;;;;;;;2.78;1.00;;;13.60;99.90;;;;;;4994164;28;20243;-92
2023/01/06 01:04:05;;;;;;;1.92;0.80;;;13.60;99.90;;;;;;5013990;28;20017;-92
2023/01/06 01:06:30;;;;;;;3.20;0.90;;;13.60;99.90;;;;;;4975931;28;20044;-93
2023/01/06 01:08:58;;;;;;;1.80;0.90;;;13.60;99.90;;;;;;4994354;28;20121;-92
2023/01/06 01:14:10;;;;;;;2.20;0.80;;;13.60;99.90;;;;;;5019274;28;20025;-93
2023/01/06 01:16:36;;;;;;;1.33;0.75;;;13.60;99.90;;;;;;5008543;28;20028;-94
2023/01/06 01:19:02;;;;;;;1.50;0.75;;;13.60;99.90;;;;;;5000660;28;20029;-91
2023/01/06 01:21:28;;;;;;;2.43;0.70;;;13.60;99.90;;;;;;4983345;28;20048;-93
2023/01/06 01:23:54;;;;;;;1.85;0.60;;;13.60;99.90;;;;;;4998008;28;20021;-92
2023/01/06 01:26:19;;;;;;;1.90;0.80;;;13.60;99.90;;;;;;5003733;28;20546;-92
2023/01/06 01:28:45;;;;;;;1.50;0.50;;;13.60;99.90;;;;;;5006612;28;20269;-92
2023/01/06 01:31:12;;;;;;;1.52;0.80;;;13.60;99.90;;;;;;4997603;28;20033;-91
2023/01/06 01:33:38;;;;;;;1.45;0.90;;;13.60;99.90;;;;;;5014772;28;20402;-93
2023/01/06 01:36:06;;;;;;;1.95;0.70;;;13.60;99.90;;;;;;5003263;28;20024;-93
2023/01/06 01:38:31;;;;;;;1.07;0.70;;;13.60;99.90;;;;;;4976831;28;20195;-90
2023/01/06 01:40:57;;;;;;;1.65;0.70;;;13.60;99.90;;;;;;5010682;28;20543;-93
2023/01/06 01:43:23;;;;;;;1.33;0.60;;;13.60;99.90;;;;;;5013469;28;20478;-90
2023/01/06 01:45:52;;;;;;;1.80;0.68;;;13.60;99.90;;;;;;5013032;28;20488;-92
2023/01/06 01:48:31;;;;;;;0.80;0.50;;;13.60;99.90;;;;;;5002483;28;20029;-91
2023/01/06 01:51:01;;;;;;;1.42;0.60;;;13.60;99.90;;;;;;5014383;28;20615;-90
2023/01/06 01:53:41;;;;;;;1.37;0.60;;;13.60;99.90;;;;;;4980599;28;20028;-91
2023/01/06 01:56:11;;;;;;;1.40;0.60;;;13.60;99.90;;;;;;5016756;28;20512;-92
2023/01/06 01:58:43;;;;;;;1.10;0.70;;;13.60;99.90;;;;;;4998404;28;20239;-92
2023/01/06 02:01:10;;;;;;;1.85;0.80;;;13.60;99.90;;;;;;5018157;28;20036;-89
2023/01/06 02:03:39;;;;;;;1.00;0.75;;;13.60;99.90;;;;;;5009881;28;20029;-89
2023/01/06 02:06:13;;;;;;;2.90;1.00;;;13.60;99.90;;;;;;5015328;28;20033;-90
2023/01/06 02:09:18;;;;;;;1.38;0.80;;;13.60;99.90;;;;;;4961135;28;20021;-88
2023/01/06 02:11:49;;;;;;;1.27;0.68;;;13.60;99.90;;;;;;4974716;28;20121;-89
2023/01/06 02:14:18;;;;;;;2.15;1.00;;;13.60;99.90;;;;;;5013929;28;20620;-89
2023/01/06 02:16:54;;;;;;;2.05;0.70;;;13.60;99.90;;;;;;4997663;28;20220;-89
2023/01/06 02:19:48;;;;;;;1.53;0.80;;;13.60;99.90;;;;;;5026409;28;20037;-89
2023/01/06 02:22:45;;;;;;;2.00;0.90;;;13.60;99.90;;;;;;4985561;28;20111;-88
2023/01/06 02:25:45;;;;;;;0.93;0.60;;;13.60;99.90;;;;;;4968119;28;20086;-89
2023/01/06 02:28:58;;;;;;;1.60;0.70;;;13.60;99.90;;;;;;5000658;28;20024;-88
2023/01/06 02:31:43;;;;;;;1.67;0.77;;;13.60;99.90;;;;;;4993953;28;20041;-88
2023/01/06 02:34:38;;;;;;;0.80;0.70;;;13.60;99.90;;;;;;5002550;28;20017;-88
2023/01/06 02:37:31;;;;;;;1.52;0.70;;;13.60;99.90;;;;;;5017130;28;20036;-90
2023/01/06 02:40:19;;;;;;;2.05;0.88;;;13.60;99.90;;;;;;4995080;28;20036;-89
2023/01/06 02:43:24;;;;;;;1.70;0.80;;;13.60;99.90;;;;;;5004909;28;20028;-88
2023/01/06 02:45:55;;;;;;;2.00;1.00;;;13.60;99.90;;;;;;5018526;28;20021;-89
2023/01/06 02:48:33;;;;;;;2.83;0.90;;;13.50;99.90;;;;;;5029805;28;20038;-88
2023/01/06 02:51:00;;;;;;;1.13;0.80;;;13.50;99.90;;;;;;5015583;28;20029;-89
2023/01/06 02:53:34;;;;;;;2.35;0.80;;;13.50;99.90;;;;;;4996464;28;20068;-92
2023/01/06 02:56:02;;;;;;;1.08;0.73;;;13.50;99.90;;;;;;5016216;28;20078;-89
2023/01/06 02:58:33;;;;;;;1.63;0.73;;;13.50;99.90;;;;;;4997930;28;20490;-88
2023/01/06 03:01:04;;;;;;;1.83;0.88;;;13.50;99.90;;;;;;5015364;28;20678;-89
2023/01/06 03:03:34;;;;;;;3.20;1.23;;;13.50;99.90;;;;;;5030629;28;20037;-88
2023/01/06 03:06:20;;;;;;;1.48;0.90;;;13.50;99.90;;;;;;4998915;28;20180;-89
2023/01/06 03:08:48;;;;;;;2.13;1.00;;;13.50;99.90;;;;;;5018779;28;20021;-89
2023/01/06 03:11:14;;;;;;;1.87;0.80;;;13.50;99.90;;;;;;4979668;28;20647;-89
2023/01/06 03:13:56;;;;;;;1.70;0.80;;;13.50;99.90;;;;;;4994323;28;20041;-89
2023/01/06 03:16:23;;;;;;;2.05;0.90;;;13.50;99.90;;;;;;5007978;28;20021;-90
2023/01/06 03:18:51;;;;;;;3.03;0.90;;;13.50;99.90;;;;;;5034176;28;20036;-90
2023/01/06 03:21:21;;;;;;;2.67;0.90;;;13.50;99.90;;;;;;5011158;28;20638;-90
2023/01/06 03:23:47;;;;;;;1.83;0.80;;;13.50;99.90;;;;;;5012600;28;20525;-89
2023/01/06 03:26:14;;;;;;;1.50;0.77;;;13.50;99.90;;;;;;4975429;28;20385;-88
2023/01/06 03:28:40;;;;;;;2.17;0.77;;;13.50;99.90;;;;;;4990573;28;20615;-90
2023/01/06 03:31:46;;;;;;;1.42;0.80;;;13.50;99.90;;;;;;5011215;28;20067;-89
2023/01/06 03:35:07;;;;;;;1.00;0.60;;;13.50;99.90;;;;;;4983811;28;20040;-88
2023/01/06 03:37:57;;;;;;;0.82;0.60;;;13.50;99.90;;;;;;4895438;29;20439;-90
2023/01/06 03:40:49;;;;;;;2.40;0.70;;;13.50;99.90;;;;;;4992864;28;20028;-88
2023/01/06 03:43:49;;;;;;;1.80;0.70;;;13.50;99.90;;;;;;4996685;28;20065;-89
2023/01/06 03:46:24;;;;;;;2.47;0.80;;;13.50;99.90;;;;;;5010935;28;20021;-89
2023/01/06 03:49:04;;;;;;;0.97;0.60;;;13.40;99.90;;;;;;4994288;28;20369;-90
2023/01/06 03:51:48;;;;;;;0.93;0.80;;;13.40;99.90;;;;;;4995579;28;20665;-89
2023/01/06 03:54:42;;;;;;;1.45;0.80;;;13.40;99.90;;;;;;4997271;28;20382;-89
2023/01/06 03:57:25;;;;;;;1.88;0.80;;;13.40;99.90;;;;;;4994483;28;20041;-89
2023/01/06 03:59:57;;;;;;;2.20;0.90;;;13.40;99.90;;;;;;4993302;28;20033;-90
2023/01/06 04:02:24;;;;;;;2.17;0.80;;;13.40;99.90;;;;;;4995550;28;20036;-87
2023/01/06 04:05:11;;;;;;;1.10;0.70;;;13.40;99.90;;;;;;4996493;28;20048;-87
2023/01/06 04:07:42;;;;;;;0.88;0.60;;;13.40;99.90;;;;;;5008566;28;20040;-87
2023/01/06 04:10:10;;;;;;;1.55;0.80;;;13.40;99.90;;;;;;5013360;28;20021;-86
2023/01/06 04:12:38;;;;;;;1.77;0.80;;;13.40;99.90;;;;;;4974518;28;20036;-85
2023/01/06 04:15:12;;;;;;;0.70;0.60;;;13.40;99.90;;;;;;4993574;28;20556;-87
2023/01/06 04:17:39;;;;;;;0.75;0.60;;;13.40;99.90;;;;;;4998287;28;20029;-86
2023/01/06 04:20:06;;;;;;;0.75;0.60;;;13.40;99.90;;;;;;4997299;28;20695;-87
2023/01/06 04:22:32;;;;;;;0.85;0.70;;;13.40;99.90;;;;;;5009473;28;20302;-85
2023/01/06 04:24:58;;;;;;;1.40;0.90;;;13.40;99.90;;;;;;5010393;28;20718;-85
2023/01/06 04:27:25;;;;;;;1.23;0.68;;;13.40;99.90;;;;;;4978982;28;20492;-87
2023/01/06 04:29:51;;;;;;;1.67;0.80;;;13.40;99.90;;;;;;5009462;28;20027;-87
2023/01/06 04:32:17;;;;;;;0.83;0.70;;;13.40;99.90;;;;;;5009837;28;20025;-87
2023/01/06 04:34:43;;;;;;;0.70;0.70;;;13.40;99.90;;;;;;4996095;28;20294;-86
2023/01/06 04:37:09;;;;;;;1.70;0.80;;;13.40;99.90;;;;;;4997652;28;20027;-85
2023/01/06 04:39:34;;;;;;;0.90;0.70;;;13.40;99.90;;;;;;5013150;28;20126;-87
2023/01/06 04:42:00;;;;;;;0.70;0.60;;;13.40;99.90;;;;;;4999657;28;20524;-87
2023/01/06 04:44:26;;;;;;;1.33;0.90;;;13.40;99.90;;;;;;4979150;28;20032;-87
2023/01/06 04:46:52;;;;;;;1.20;0.70;;;13.40;99.90;;;;;;5016245;28;20025;-86
2023/01/06 04:49:19;;;;;;;0.60;0.60;;;13.40;99.90;;;;;;5017248;28;20029;-87
2023/01/06 04:51:45;;;;;;;2.03;0.90;;;13.40;99.90;;;;;;5015632;28;20112;-87
2023/01/06 04:54:11;;;;;;;1.43;0.60;;;13.40;99.90;;;;;;4985841;28;20377;-86
2023/01/06 04:56:37;;;;;;;0.90;0.70;;;13.40;99.90;;;;;;5030353;28;20270;-87
2023/01/06 04:59:03;;;;;;;1.10;0.68;;;13.40;99.90;;;;;;4981857;28;20021;-86
2023/01/06 05:01:30;;;;;;;1.27;0.70;;;13.40;99.90;;;;;;5002184;28;20190;-87
2023/01/06 05:03:56;;;;;;;0.68;0.57;;;13.30;99.90;;;;;;4999772;28;20044;-86
2023/01/06 05:06:22;;;;;;;1.55;0.60;;;13.30;99.90;;;;;;5001508;28;20048;-87
2023/01/06 05:08:48;;;;;;;1.47;0.70;;;13.30;99.90;;;;;;4998875;28;20035;-86
2023/01/06 05:11:20;;;;;;;1.25;0.60;;;13.30;99.90;;;;;;5002774;28;20021;-86
2023/01/06 05:13:46;;;;;;;1.92;0.63;;;13.30;99.90;;;;;;4977573;28;20560;-87
2023/01/06 05:16:17;;;;;;;1.20;0.70;;;13.30;99.90;;;;;;5002104;28;20107;-89
2023/01/06 05:18:43;;;;;;;1.00;0.60;;;13.30;99.90;;;;;;4998363;28;20104;-90
2023/01/06 05:21:10;;;;;;;0.65;0.60;;;13.30;99.90;;;;;;5022442;28;20059;-89
2023/01/06 05:23:37;;;;;;;1.10;0.60;;;13.30;99.90;;;;;;5015367;28;20606;-89
2023/01/06 05:26:03;;;;;;;0.85;0.50;;;13.40;99.90;;;;;;5015239;28;20029;-88
2023/01/06 05:28:29;;;;;;;1.37;0.70;;;13.40;99.90;;;;;;5002008;28;20117;-89
2023/01/06 05:31:03;;;;;;;1.63;0.63;;;13.40;99.90;;;;;;4980010;28;20114;-88
2023/01/06 05:33:30;;;;;;;1.35;0.70;;;13.40;99.90;;;;;;4994823;28;20093;-91
2023/01/06 05:36:00;;;;;;;1.00;0.50;;;13.30;99.90;;;;;;5003014;28;20041;-88
2023/01/06 05:38:26;;;;;;;1.45;0.80;;;13.40;99.90;;;;;;5032048;28;20025;-90
2023/01/06 05:40:52;;;;;;;1.03;0.70;;;13.40;99.90;;;;;;5000515;28;20119;-90
2023/01/06 05:43:19;;;;;;;1.20;0.80;;;13.40;99.90;;;;;;5009667;28;20222;-89
2023/01/06 05:45:45;;;;;;;1.08;0.70;;;13.40;99.90;;;;;;4997206;28;20037;-89
2023/01/06 05:48:11;;;;;;;0.73;0.70;;;13.40;99.90;;;;;;4997319;28;20033;-90
2023/01/06 05:50:37;;;;;;;1.83;0.90;;;13.40;99.90;;;;;;5006677;28;20218;-88
2023/01/06 05:53:04;;;;;;;1.33;0.90;;;13.40;99.90;;;;;;5018376;28;20325;-90
2023/01/06 05:55:31;;;;;;;1.63;1.00;;;13.40;99.90;;;;;;4999190;28;20264;-90
2023/01/06 05:57:56;;;;;;;0.70;0.70;;;13.40;99.90;;;;;;4999450;28;20013;-90
2023/01/06 06:00:22;;;;;;;1.48;0.70;;;13.40;99.90;;;;;;5013866;28;20044;-89
2023/01/06 06:02:48;;;;;;;2.03;0.80;;;13.40;99.90;;;;;;4982893;28;20028;-88
2023/01/06 06:05:14;;;;;;;0.75;0.65;;;13.40;99.90;;;;;;4993798;28;20140;-89
2023/01/06 06:07:40;;;;;;;2.58;1.00;;;13.40;99.90;;;;;;5002650;28;20029;-88
2023/01/06 06:10:08;;;;;;;1.90;0.70;;;13.40;99.90;;;;;;4998700;28;20044;-90
2023/01/06 06:12:35;;;;;;;1.60;0.73;;;13.40;99.90;;;;;;5002305;28;20060;-88
2023/01/06 06:15:01;;;;;;;1.42;0.75;;;13.50;99.90;;;;;;5014227;28;20027;-88
2023/01/06 06:17:27;;;;;;;0.90;0.70;;;13.50;99.90;;;;;;4995076;28;20270;-89
2023/01/06 06:19:53;;;;;;;1.23;0.90;;;13.50;99.90;;;;;;5013219;28;20025;-89
2023/01/06 06:22:18;;;;;;;1.02;0.65;;;13.50;99.90;;;;;;4999127;28;20136;-87
2023/01/06 06:24:44;;;;;;;1.52;0.70;;;13.50;99.90;;;;;;5013178;28;20445;-89
2023/01/06 06:27:11;;;;;;;3.53;0.93;;;13.50;99.90;;;;;;5010408;28;20074;-88
2023/01/06 06:29:38;;;;;;;1.33;0.80;;;13.50;99.90;;;;;;5011334;28;20025;-88
2023/01/06 06:32:04;;;;;;;1.42;0.77;;;13.50;99.90;;;;;;4983329;28;20037;-89
2023/01/06 06:34:30;;;;;;;1.17;0.60;;;13.50;99.90;;;;;;4986813;28;20229;-89
2023/01/06 06:36:56;;;;;;;0.83;0.70;;;13.60;99.90;;;;;;5011152;28;20031;-89
2023/01/06 06:39:22;;;;;;;1.08;0.57;;;13.60;99.90;;;;;;4997509;28;20111;-88
2023/01/06 06:41:48;;;;;;;1.08;0.70;;;13.60;99.90;;;;;;5016903;28;20032;-89
2023/01/06 06:44:14;;;;;;;1.15;0.70;;;13.60;99.90;;;;;;4996946;28;20025;-88
2023/01/06 06:46:42;;;;;;;0.80;0.60;;;13.60;99.90;;;;;;5001521;28;20052;-88
2023/01/06 06:49:07;;;;;;;1.48;0.70;;;13.60;99.90;;;;;;4968160;28;20052;-90
2023/01/06 06:51:33;;;;;;;1.52;0.70;;;13.60;99.90;;;;;;5017123;28;20024;-90
2023/01/06 06:53:59;;;;;;;0.70;0.50;;;13.60;99.90;;;;;;5013959;28;20096;-89
2023/01/06 06:56:24;;;;;;;0.68;0.60;;;13.60;99.90;;;;;;4997232;28;20539;-90
2023/01/06 06:58:50;;;;;;;1.33;0.60;;;13.60;99.90;;;;;;5000795;28;20025;-89
2023/01/06 07:01:19;;;;;;;1.08;0.55;;;13.60;99.90;;;;;;5012757;28;20283;-89
2023/01/06 07:03:44;;;;;;;0.73;0.63;;;13.60;99.90;;;;;;4994887;28;20012;-88
2023/01/06 07:06:13;;;;;;;0.77;0.55;;;13.60;99.90;;;;;;4998106;28;20596;-89
2023/01/06 07:08:44;;;;;;;0.60;0.60;;;13.60;99.90;;;;;;5015456;28;20028;-90
2023/01/06 07:11:10;;;;;;;0.70;0.70;;;13.60;99.90;;;;;;4999170;28;20017;-87
2023/01/06 07:13:36;;;;;;;0.60;0.50;;;13.60;99.90;;;;;;4993215;28;20401;-89
2023/01/06 07:16:02;;;;;;;0.50;0.50;;;13.60;99.90;;;;;;5014795;28;20096;-89
2023/01/06 07:18:28;;;;;;;0.60;0.60;;;13.60;99.90;;;;;;5009377;28;20056;-88
2023/01/06 07:20:54;;;;;;;1.07;0.80;;;13.60;99.90;;;;;;4964146;28;20040;-91
2023/01/06 07:23:21;;;;;;;1.42;0.60;;;13.50;99.90;;;;;;4996256;28;20174;-88
2023/01/06 07:25:57;;;;;;;0.80;0.75;;;13.50;99.90;;;;;;4998321;28;20032;-89
2023/01/06 07:28:24;;;;;;;0.83;0.70;;;13.50;99.90;;;;;;4994152;28;20029;-89
2023/01/06 07:30:51;;;;;;;0.70;0.60;;;13.50;99.90;;;;;;5028293;28;20143;-89
2023/01/06 07:33:17;;;;;;;0.70;0.60;;;13.50;99.90;;;;;;5007898;28;20341;-88
2023/01/06 07:35:42;;;;;;;0.85;0.60;;;13.50;99.90;;;;;;4996551;28;20055;-88
2023/01/06 07:38:09;;;;;;;0.60;0.60;;;13.50;99.90;;;;;;5012914;28;20048;-88
2023/01/06 07:40:35;;;;;;;1.02;0.73;;;13.50;99.90;;;;;;5017006;28;20036;-88
2023/01/06 07:43:06;;;;;;;0.77;0.60;;;13.50;99.90;;;;;;4997140;28;20048;-89
2023/01/06 07:45:32;;;;;;;1.48;0.60;;;13.50;99.90;;;;;;4999579;28;20072;-87
2023/01/06 07:47:58;;;;;;;0.75;0.60;;;13.50;99.90;;;;;;4995928;28;20025;-90
2023/01/06 07:50:25;;;;;;;2.37;0.70;;;13.50;99.90;;;;;;4977353;28;20029;-88
2023/01/06 07:52:51;;;;;;;1.00;0.70;;;13.40;99.90;;;;;;5014395;28;20067;-90
2023/01/06 07:55:17;;;;;;;0.70;0.70;;;13.40;99.90;;;;;;5001272;28;20151;-90
2023/01/06 07:57:43;;;;;;;0.75;0.70;;;13.40;99.90;;;;;;5015842;28;20443;-89
2023/01/06 08:00:09;;;;;;;1.00;0.60;;;13.40;99.90;;;;;;4994365;28;20021;-86
2023/01/06 08:02:35;;;;;;;0.82;0.73;;;13.40;99.90;;;;;;5003525;28;20017;-88
2023/01/06 08:05:01;;;;;;;0.95;0.75;;;13.40;99.90;;;;;;4984840;28;20037;-89
2023/01/06 08:07:27;;;;;;;0.83;0.80;;;13.30;99.90;;;;;;4976096;28;20374;-88
2023/01/06 08:09:53;;;;;;;1.40;0.90;;;13.30;99.90;;;;;;4995139;28;20100;-88
2023/01/06 08:12:18;;;;;;;1.02;0.80;;;13.20;99.90;;;;;;4994309;28;20339;-88
2023/01/06 08:14:44;;;;;;;1.00;0.90;;;13.20;99.90;;;;;;4994918;28;20516;-89
2023/01/06 08:17:10;;;;;;;0.95;0.85;;;13.10;99.90;;;;;;4990571;28;20017;-88
2023/01/06 08:19:36;;;;;;;1.17;0.90;;;13.10;99.90;;;;;;4996462;28;20103;-88
2023/01/06 08:22:02;;;;;;;1.58;0.95;;;13.10;99.90;;;;;;4977079;28;20552;-88
2023/01/06 08:24:29;;;;;;;0.73;0.73;;;13.00;99.90;;;;;;4983420;28;20667;-88
2023/01/06 08:26:56;;;;;;;1.30;0.90;;;13.00;99.90;;;;;;4987310;28;20041;-87
2023/01/06 08:29:25;;;;;;;1.00;0.80;;;13.00;99.90;;;;;;4980400;28;20033;-87
2023/01/06 08:31:51;;;;;;;1.00;0.90;;;12.90;99.90;;;;;;4992627;28;20021;-88
2023/01/06 08:34:17;;;;;;;1.58;1.02;;;12.90;99.90;;;;;;4981401;28;20029;-88
2023/01/06 08:36:44;;;;;;;1.30;1.10;;;12.90;99.90;;;;;;4959262;28;20615;-89
2023/01/06 08:39:12;;;;;;;1.50;1.00;;;12.90;99.90;;;;;;4999737;28;20767;-87
2023/01/06 08:41:38;;;;;;;1.53;0.97;;;12.90;99.90;;;;;;4994133;28;20493;-89
2023/01/06 08:44:06;;;;;;;1.23;1.00;;;12.90;99.90;;;;;;4981548;28;20029;-88
2023/01/06 08:46:33;;;;;;;1.65;0.90;;;12.90;99.90;;;;;;4991538;28;20057;-90
2023/01/06 08:48:59;;;;;;;1.45;1.08;;;12.90;99.90;;;;;;5010885;28;20033;-88
2023/01/06 08:51:27;;;;;;;1.20;1.00;;;12.90;99.90;;;;;;4977275;28;20029;-87
2023/01/06 08:53:53;;;;;;;1.20;1.10;;;12.90;99.90;;;;;;4998154;28;20216;-88
2023/01/06 08:56:26;;;;;;;1.17;1.08;;;12.90;99.90;;;;;;4997584;28;20022;-88
2023/01/06 08:59:02;;;;;;;1.30;0.90;;;12.90;99.90;;;;;;4996785;28;20120;-88
2023/01/06 09:01:32;;;;;;;2.35;1.00;;;12.90;99.90;;;;;;4980037;28;20031;-88
2023/01/06 09:04:00;;;;;;;1.52;1.00;;;13.00;99.90;;;;;;4995524;28;20060;-88
2023/01/06 09:06:26;;;;;;;1.20;0.90;;;13.00;99.90;;;;;;4991750;28;20045;-90
2023/01/06 09:08:53;;;;;;;1.38;1.10;;;13.00;99.90;;;;;;4986698;28;20268;-88
2023/01/06 09:11:19;;;;;;;2.20;1.00;;;13.10;99.90;;;;;;4997996;28;20021;-90
2023/01/06 09:13:45;;;;;;;2.55;1.25;;;13.10;99.90;;;;;;4996958;28;20216;-88
2023/01/06 09:16:12;;;;;;;1.92;1.27;;;13.10;99.90;;;;;;5036884;28;20273;-88
2023/01/06 09:18:38;;;;;;;1.40;1.10;;;13.20;99.90;;;;;;4994023;28;20040;-88
2023/01/06 09:21:04;;;;;;;1.80;1.27;;;13.30;99.90;;;;;;4998790;28;20337;-88
2023/01/06 09:23:30;;;;;;;1.10;1.00;;;13.20;99.90;;;;;;4977492;28;20042;-89
2023/01/06 09:25:57;;;;;;;1.25;1.08;;;13.30;99.90;;;;;;5018059;28;20135;-88
2023/01/06 09:28:23;;;;;;;1.65;1.30;;;13.30;99.90;;;;;;5021655;28;20033;-88
2023/01/06 09:30:49;;;;;;;1.63;1.10;;;13.30;99.90;;;;;;5013168;28;20223;-89
2023/01/06 09:33:15;;;;;;;2.15;1.20;;;13.40;99.90;;;;;;4994134;28;20025;-88
2023/01/06 09:35:45;;;;;;;1.45;1.20;;;13.40;99.90;;;;;;5014911;28;20685;-89
2023/01/06 09:38:12;;;;;;;1.95;1.20;;;13.40;99.90;;;;;;4980728;28;20322;-88
2023/01/06 09:41:15;;;;;;;2.37;1.07;;;13.40;99.90;;;;;;4997921;28;20412;-88
2023/01/06 09:43:44;;;;;;;2.70;1.10;;;13.50;99.90;;;;;;5011198;28;20164;-89
2023/01/06 09:46:13;;;;;;;1.30;1.00;;;13.60;99.90;;;;;;5004756;28;20033;-89
2023/01/06 09:48:53;;;;;;;1.80;1.20;;;13.60;99.90;;;;;;5005229;28;20033;-88
2023/01/06 09:51:22;;;;;;;1.10;1.00;;;13.60;99.90;;;;;;5001683;28;20063;-89
2023/01/06 09:53:55;;;;;;;1.30;0.90;;;13.60;99.90;;;;;;4991939;28;20098;-88
2023/01/06 09:56:23;;;;;;;1.70;1.10;;;13.70;99.90;;;;;;5003435;28;20036;-88
2023/01/06 09:59:11;;;;;;;1.65;1.02;;;13.70;99.90;;;;;;4996031;28;20037;-88
2023/01/06 10:01:45;;;;;;;1.20;1.10;;;13.70;99.90;;;;;;5027277;28;20442;-89
2023/01/06 10:04:21;;;;;;;2.35;1.13;;;13.80;99.90;;;;;;5001264;28;20021;-88
2023/01/06 10:07:04;;;;;;;1.23;1.00;;;13.80;99.90;;;;;;4965984;28;20234;-88
2023/01/06 10:09:52;;;;;;;2.08;1.00;;;13.90;99.90;;;;;;4983403;28;20439;-89
2023/01/06 10:12:41;;;;;;;1.00;0.90;;;13.90;99.90;;;;;;4998975;28;20367;-89
2023/01/06 10:15:16;;;;;;;3.95;1.10;;;14.00;99.90;;;;;;4994965;28;20025;-88
2023/01/06 10:17:58;;;;;;;1.30;1.00;;;14.10;99.90;;;;;;4994794;28;20219;-88
2023/01/06 10:20:58;;;;;;;2.23;0.87;;;14.20;99.90;;;;;;4989708;28;20399;-88
2023/01/06 10:23:45;;;;;;;1.20;1.00;;;14.20;99.90;;;;;;4997552;28;20376;-90
2023/01/06 10:26:36;;;;;;;1.17;0.90;;;14.20;99.90;;;;;;4977778;28;20091;-88
2023/01/06 10:29:14;;;;;;;1.05;0.80;;;14.20;99.90;;;;;;4996592;28;20034;-89
2023/01/06 10:31:43;;;;;;;2.35;0.93;;;14.20;99.90;;;;;;4974787;28;20259;-89
2023/01/06 10:34:22;;;;;;;1.00;0.90;;;14.20;99.90;;;;;;4998739;28;20100;-89
2023/01/06 10:37:14;;;;;;;1.25;0.93;;;14.30;99.90;;;;;;4991149;28;20229;-88
2023/01/06 10:39:44;;;;;;;0.80;0.80;;;14.20;99.90;;;;;;4961576;28;20306;-88
2023/01/06 10:42:55;;;;;;;1.25;1.02;;;14.20;99.90;;;;;;4976405;28;20021;-89
2023/01/06 10:45:26;;;;;;;1.52;0.85;;;14.20;99.90;;;;;;4988290;28;20554;-89
2023/01/06 10:47:53;;;;;;;0.93;0.80;;;14.20;99.90;;;;;;5011809;28;20025;-89
2023/01/06 10:50:19;;;;;;;0.93;0.80;;;14.10;99.90;;;;;;4981569;28;20021;-89
2023/01/06 10:52:46;;;;;;;0.90;0.90;;;14.10;99.90;;;;;;4973784;28;20702;-89
2023/01/06 10:55:45;;;;;;;1.85;0.90;;;14.10;99.90;;;;;;4982172;28;20439;-89
2023/01/06 10:58:20;;;;;;;0.80;0.80;;;14.10;99.90;;;;;;4972351;28;20025;-89
2023/01/06 11:01:10;;;;;;;1.00;0.67;;;14.00;99.90;;;;;;4989031;28;20246;-88
2023/01/06 11:03:41;;;;;;;0.80;0.70;;;14.00;99.90;;;;;;4989172;28;20036;-88
2023/01/06 11:06:07;;;;;;;1.02;0.80;;;13.90;99.90;;;;;;5009997;28;20693;-89
2023/01/06 11:08:35;;;;;;;1.27;0.65;;;13.90;99.90;;;;;;5028876;28;20048;-89
2023/01/06 11:11:01;;;;;;;0.90;0.70;;;13.80;99.90;;;;;;5013066;28;20032;-89
2023/01/06 11:13:35;;;;;;;0.70;0.70;;;13.80;99.90;;;;;;5001233;28;20018;-89
2023/01/06 11:16:05;;;;;;;0.80;0.80;;;13.80;99.90;;;;;;5012857;28;20025;-88
2023/01/06 11:18:32;;;;;;;0.90;0.80;;;13.70;99.90;;;;;;5013848;28;20086;-88
2023/01/06 11:21:06;;;;;;;1.10;0.95;;;13.70;99.90;;;;;;5014229;28;20068;-88
2023/01/06 11:23:32;;;;;;;2.40;1.00;;;13.70;99.90;;;;;;5008331;28;20047;-88
2023/01/06 11:26:12;;;;;;;0.87;0.80;;;13.70;99.90;;;;;;4996854;28;20032;-88
2023/01/06 11:28:39;;;;;;;1.13;0.80;;;13.60;99.90;;;;;;4987204;28;20017;-87
2023/01/06 11:31:14;;;;;;;1.02;0.80;;;13.60;99.90;;;;;;5034508;28;20044;-88
2023/01/06 11:34:02;;;;;;;1.00;0.90;;;13.60;99.90;;;;;;4996511;28;20218;-87
2023/01/06 11:36:30;;;;;;;1.00;0.90;;;13.60;99.90;;;;;;5008690;28;20211;-88
2023/01/06 11:39:11;;;;;;;2.37;1.00;;;13.60;99.90;;;;;;5008808;28;20041;-88
2023/01/06 11:41:39;;;;;;;1.27;0.90;;;13.60;99.90;;;;;;5026779;28;20024;-88
2023/01/06 11:44:11;;;;;;;1.60;1.00;;;13.60;99.90;;;;;;4996070;28;20032;-87
2023/01/06 11:46:39;;;;;;;1.10;0.90;;;13.60;99.90;;;;;;5010118;28;20063;-87
2023/01/06 11:49:14;;;;;;;1.20;1.00;;;13.70;99.90;;;;;;5010570;28;20021;-88
2023/01/06 11:51:42;;;;;;;1.30;1.10;;;13.70;99.90;;;;;;5027287;28;20064;-88
2023/01/06 11:54:25;;;;;;;1.48;1.08;;;13.70;99.90;;;;;;4995950;28;20029;-89
2023/01/06 11:57:35;;;;;;;2.05;1.20;;;13.70;99.90;;;;;;5027474;28;20060;-88
2023/01/06 12:00:26;;;;;;;1.75;1.20;;;13.60;99.90;;;;;;4951996;28;20036;-88
2023/01/06 12:03:14;;;;;;;1.85;1.40;;;13.70;99.90;;;;;;5010591;28;20036;-88
2023/01/06 12:05:50;;;;;;;1.40;1.20;;;13.70;99.90;;;;;;5014887;28;20571;-88
2023/01/06 12:08:22;;;;;;;1.48;1.10;;;13.70;99.90;;;;;;4987334;28;20057;-89
2023/01/06 12:10:55;;;;;;;1.23;1.10;;;13.70;99.90;;;;;;5015251;28;20288;-88
2023/01/06 12:13:22;;;;;;;1.92;1.10;;;13.70;99.90;;;;;;4995290;28;20021;-88
2023/01/06 12:16:04;;;;;;;1.45;1.20;;;13.80;99.90;;;;;;5010025;28;20103;-88
2023/01/06 12:18:34;;;;;;;1.43;1.00;;;13.70;99.90;;;;;;5015435;28;20018;-89
2023/01/06 12:21:02;;;;;;;1.95;0.90;;;13.80;99.90;;;;;;5013387;28;20097;-89
2023/01/06 12:23:36;;;;;;;1.33;0.80;;;13.90;99.90;;;;;;5010206;28;20021;-89
2023/01/06 12:26:08;;;;;;;0.90;0.70;;;13.90;99.90;;;;;;5003553;28;20033;-88
2023/01/06 12:28:40;;;;;;;2.20;1.45;;;13.90;99.90;;;;;;4998867;28;20541;-89
2023/01/06 12:31:15;;;;;;;1.40;1.00;;;14.00;99.90;;;;;;4990455;28;20295;-89
2023/01/06 12:33:58;;;;;;;1.00;0.80;;;14.00;99.90;;;;;;4998695;28;20059;-89
2023/01/06 12:36:45;;;;;;;0.93;0.80;;;14.00;99.90;;;;;;5011122;28;20392;-89
2023/01/06 12:39:11;;;;;;;1.30;1.00;;;14.00;99.90;;;;;;4984402;28;20541;-88
2023/01/06 12:41:52;;;;;;;1.10;0.90;;;14.00;99.90;;;;;;4986387;28;20040;-89
2023/01/06 12:44:36;;;;;;;0.70;0.70;;;14.00;99.90;;;;;;5012014;28;20528;-88
2023/01/06 12:47:16;;;;;;;2.05;1.13;;;14.00;99.90;;;;;;4974826;28;20063;-88
2023/01/06 12:49:44;;;;;;;2.25;1.13;;;14.10;99.90;;;;;;4990306;28;20041;-88
2023/01/06 12:52:16;;;;;;;1.17;0.90;;;14.10;99.90;;;;;;4994662;28;20087;-88
2023/01/06 12:54:50;;;;;;;1.00;0.90;;;14.10;99.90;;;;;;4994220;28;20022;-88
2023/01/06 12:57:25;;;;;;;1.00;0.90;;;14.10;99.90;;;;;;5027437;28;20036;-89
2023/01/06 13:00:10;;;;;;;1.08;0.90;;;14.10;99.90;;;;;;5005648;28;20264;-88
2023/01/06 13:02:56;;;;;;;1.23;1.10;;;14.10;99.90;;;;;;4977907;28;20033;-89
2023/01/06 13:05:40;;;;;;;1.27;1.10;;;14.10;99.90;;;;;;5016278;28;20457;-89
2023/01/06 13:08:31;;;;;;;2.15;1.38;;;14.10;99.90;;;;;;5013637;28;20025;-89
2023/01/06 13:11:32;;;;;;;1.33;1.10;;;14.10;99.90;;;;;;5011717;28;20360;-88
2023/01/06 13:14:37;;;;;;;1.27;1.17;;;14.10;99.90;;;;;;4977371;28;20309;-88
2023/01/06 13:17:22;;;;;;;1.52;1.15;;;14.00;99.90;;;;;;4916889;28;20185;-88